createdAt,value
2022-10-11T00:00:33.172Z,25.38
2022-10-11T00:03:00.586Z,28.55
2022-10-11T00:05:27.915Z,24.58
2022-10-11T00:07:56.304Z,26.95
2022-10-11T00:10:23.807Z,29.77
2022-10-11T00:12:51.268Z,24.35
2022-10-11T00:15:20.135Z,28.25
2022-10-11T00:17:47.273Z,27.95
2022-10-11T00:20:14.901Z,31.92
2022-10-11T00:22:42.622Z,30.02
2022-10-11T00:25:12.601Z,29.33
2022-10-11T00:27:39.882Z,31.48
2022-10-11T00:30:08.288Z,34.55
2022-10-11T00:32:36.626Z,24.85
2022-10-11T00:35:09.658Z,28.17
2022-10-11T00:37:38.411Z,29.17
2022-10-11T00:40:14.816Z,30.55
2022-10-11T00:42:44.196Z,36.28
2022-10-11T00:46:00.772Z,24.45
2022-10-11T00:48:33.194Z,30.77
2022-10-11T00:51:02.904Z,25.30
2022-10-11T00:53:32.234Z,23.42
2022-10-11T00:56:05.159Z,25.67
2022-10-11T00:58:35.060Z,31.27
2022-10-11T01:01:02.552Z,23.10
2022-10-11T01:03:33.414Z,25.98
2022-10-11T01:06:00.426Z,26.60
2022-10-11T01:08:27.577Z,23.48
2022-10-11T01:10:54.987Z,25.95
2022-10-11T01:13:35.690Z,24.45
2022-10-11T01:16:13.806Z,22.35
2022-10-11T01:18:47.784Z,22.77
2022-10-11T01:21:26.407Z,26.17
2022-10-11T01:24:13.146Z,21.57
2022-10-11T01:27:01.594Z,21.90
2022-10-11T01:29:41.308Z,24.45
2022-10-11T01:32:13.688Z,20.40
2022-10-11T01:34:47.830Z,29.70
2022-10-11T01:37:24.223Z,21.23
2022-10-11T01:39:56.386Z,23.48
2022-10-11T01:42:24.087Z,26.88
2022-10-11T01:44:51.875Z,27.17
2022-10-11T01:47:21.706Z,24.33
2022-10-11T01:49:53.931Z,22.33
2022-10-11T01:52:20.713Z,26.40
2022-10-11T01:55:10.295Z,21.52
2022-10-11T01:58:07.002Z,23.98
2022-10-11T02:00:45.175Z,25.42
2022-10-11T02:03:21.645Z,23.63
2022-10-11T02:05:55.311Z,24.30
2022-10-11T02:08:27.751Z,25.55
2022-10-11T02:11:00.990Z,26.63
2022-10-11T02:13:31.975Z,23.45
2022-10-11T02:16:02.399Z,25.48
2022-10-11T02:18:36.334Z,24.50
2022-10-11T02:21:07.406Z,22.65
2022-10-11T02:23:39.179Z,21.92
2022-10-11T02:26:08.971Z,25.33
2022-10-11T02:28:38.026Z,17.65
2022-10-11T02:31:06.868Z,27.15
2022-10-11T02:33:40.314Z,18.83
2022-10-11T02:36:14.172Z,28.95
2022-10-11T02:38:47.369Z,19.50
2022-10-11T02:41:21.468Z,24.52
2022-10-11T02:43:55.234Z,21.25
2022-10-11T02:46:22.336Z,20.13
2022-10-11T02:48:51.177Z,27.05
2022-10-11T02:51:18.407Z,23.35
2022-10-11T02:53:44.982Z,23.65
2022-10-11T02:56:11.568Z,22.05
2022-10-11T02:58:38.172Z,18.15
2022-10-11T03:01:04.899Z,23.80
2022-10-11T03:03:31.455Z,23.08
2022-10-11T03:06:00.149Z,20.00
2022-10-11T03:08:26.843Z,18.53
2022-10-11T03:10:53.432Z,20.05
2022-10-11T03:13:20.122Z,24.23
2022-10-11T03:15:49.421Z,23.23
2022-10-11T03:18:19.354Z,21.55
2022-10-11T03:20:46.159Z,22.17
2022-10-11T03:23:14.236Z,21.83
2022-10-11T03:25:40.820Z,21.60
2022-10-11T03:28:07.493Z,17.05
2022-10-11T03:30:34.105Z,19.92
2022-10-11T03:33:00.686Z,17.80
2022-10-11T03:35:27.339Z,19.30
2022-10-11T03:37:53.916Z,19.10
2022-10-11T03:40:21.830Z,20.67
2022-10-11T03:42:48.614Z,23.98
2022-10-11T03:45:15.221Z,27.33
2022-10-11T03:47:41.789Z,17.45
2022-10-11T03:50:09.766Z,21.60
2022-10-11T03:52:36.364Z,17.75
2022-10-11T03:55:03.234Z,19.15
2022-10-11T03:57:31.215Z,20.17
2022-10-11T03:59:57.764Z,19.15
2022-10-11T04:02:24.613Z,21.52
2022-10-11T04:04:51.246Z,16.38
2022-10-11T04:07:17.799Z,15.32
2022-10-11T04:09:44.386Z,16.27
2022-10-11T04:12:11.007Z,22.83
2022-10-11T04:14:38.978Z,17.00
2022-10-11T04:17:05.510Z,21.30
2022-10-11T04:19:32.113Z,15.00
2022-10-11T04:21:58.650Z,17.75
2022-10-11T04:24:25.208Z,18.77
2022-10-11T04:26:51.875Z,34.80
2022-10-11T04:29:18.447Z,43.42
2022-10-11T04:31:46.375Z,42.22
2022-10-11T04:34:12.951Z,27.98
2022-10-11T04:36:39.499Z,43.42
2022-10-11T04:39:06.435Z,52.58
2022-10-11T04:41:33.307Z,52.50
2022-10-11T04:44:00.315Z,61.58
2022-10-11T04:46:27.072Z,69.40
2022-10-11T04:48:55.732Z,69.13
2022-10-11T04:51:22.630Z,56.10
2022-10-11T04:53:49.273Z,35.75
2022-10-11T04:56:16.380Z,20.27
2022-10-11T04:58:42.929Z,28.00
2022-10-11T05:01:10.435Z,48.40
2022-10-11T05:03:37.616Z,43.75
2022-10-11T05:06:06.351Z,28.90
2022-10-11T05:08:33.352Z,28.30
2022-10-11T05:11:01.898Z,22.73
2022-10-11T05:13:30.142Z,14.43
2022-10-11T05:15:57.103Z,16.13
2022-10-11T05:18:24.343Z,17.33
2022-10-11T05:20:58.903Z,25.15
2022-10-11T05:23:27.091Z,26.02
2022-10-11T05:25:53.672Z,22.05
2022-10-11T05:28:20.282Z,16.95
2022-10-11T05:30:46.926Z,22.70
2022-10-11T05:33:13.506Z,24.27
2022-10-11T05:35:40.217Z,20.65
2022-10-11T05:38:06.898Z,38.40
2022-10-11T05:40:34.846Z,44.78
2022-10-11T05:43:01.395Z,25.98
2022-10-11T05:45:28.031Z,27.75
2022-10-11T05:47:54.607Z,47.13
2022-10-11T05:50:24.329Z,17.85
2022-10-11T05:52:51.545Z,40.38
2022-10-11T05:55:18.106Z,25.98
2022-10-11T05:57:46.009Z,19.73
2022-10-11T06:00:13.277Z,27.80
2022-10-11T06:02:40.183Z,24.27
2022-10-11T06:05:07.210Z,19.27
2022-10-11T06:07:35.696Z,33.13
2022-10-11T06:10:02.400Z,20.63
2022-10-11T06:12:29.020Z,19.67
2022-10-11T06:14:57.005Z,13.93
2022-10-11T06:17:28.337Z,21.73
2022-10-11T06:19:55.685Z,12.80
2022-10-11T06:22:22.292Z,13.68
2022-10-11T06:24:49.024Z,18.90
2022-10-11T06:27:15.695Z,19.55
2022-10-11T06:29:42.348Z,21.05
2022-10-11T06:32:10.341Z,18.33
2022-10-11T06:34:36.902Z,19.08
2022-10-11T06:37:03.502Z,20.67
2022-10-11T06:39:30.174Z,15.73
2022-10-11T06:41:56.770Z,15.30
2022-10-11T06:44:23.514Z,14.80
2022-10-11T06:46:50.107Z,15.30
2022-10-11T06:49:23.064Z,11.95
2022-10-11T06:51:50.565Z,15.38
2022-10-11T06:54:17.221Z,14.52
2022-10-11T06:56:43.884Z,15.90
2022-10-11T06:59:10.531Z,12.70
2022-10-11T07:01:37.196Z,14.63
2022-10-11T07:04:04.120Z,16.00
2022-10-11T07:06:37.307Z,15.48
2022-10-11T07:09:04.827Z,14.77
2022-10-11T07:11:31.625Z,14.27
2022-10-11T07:14:01.451Z,14.80
2022-10-11T07:16:28.560Z,15.63
2022-10-11T07:19:00.575Z,14.63
2022-10-11T07:21:28.578Z,16.05
2022-10-11T07:23:56.946Z,13.05
2022-10-11T07:26:23.608Z,14.45
2022-10-11T07:28:50.321Z,18.27
2022-10-11T07:31:19.878Z,14.18
2022-10-11T07:36:13.717Z,14.55
2022-10-11T07:38:41.922Z,14.25
2022-10-11T07:41:12.741Z,14.55
2022-10-11T07:43:39.800Z,15.05
2022-10-11T07:46:07.826Z,16.98
2022-10-11T07:48:36.456Z,15.30
2022-10-11T07:51:05.286Z,15.82
2022-10-11T07:53:31.913Z,19.55
2022-10-11T07:56:00.264Z,19.70
2022-10-11T07:58:28.523Z,17.95
2022-10-11T08:00:55.466Z,19.55
2022-10-11T08:03:22.030Z,20.02
2022-10-11T08:05:48.716Z,21.98
2022-10-11T08:08:15.377Z,20.98
2022-10-11T08:10:41.993Z,24.65
2022-10-11T08:13:08.617Z,31.17
2022-10-11T08:15:36.573Z,30.73
2022-10-11T08:18:03.264Z,39.33
2022-10-11T08:20:29.927Z,40.55
2022-10-11T08:22:57.051Z,33.55
2022-10-11T08:25:23.709Z,37.05
2022-10-11T08:27:50.412Z,37.03
2022-10-11T08:30:17.290Z,39.20
2022-10-11T08:32:45.294Z,36.25
2022-10-11T08:35:11.898Z,39.38
2022-10-11T08:37:38.577Z,39.95
2022-10-11T08:40:06.594Z,39.25
2022-10-11T08:42:37.064Z,40.25
2022-10-11T08:45:11.544Z,43.42
2022-10-11T08:47:42.687Z,37.95
2022-10-11T08:50:19.584Z,42.38
2022-10-11T08:52:50.811Z,33.40
2022-10-11T08:55:21.573Z,31.50
2022-10-11T08:57:52.478Z,39.38
2022-10-11T09:00:20.686Z,35.63
2022-10-11T09:03:07.983Z,32.75
2022-10-11T09:05:59.565Z,35.88
2022-10-11T09:08:33.188Z,37.15
2022-10-11T09:11:10.995Z,37.03
2022-10-11T09:13:58.820Z,34.15
2022-10-11T09:16:34.832Z,44.92
2022-10-11T09:19:49.088Z,37.78
2022-10-11T09:22:30.345Z,32.20
2022-10-11T09:25:12.003Z,31.55
2022-10-11T09:28:01.748Z,28.55
2022-10-11T09:30:29.352Z,31.48
2022-10-11T09:33:08.749Z,34.65
2022-10-11T09:38:15.419Z,30.05
2022-10-11T09:40:52.970Z,30.92
2022-10-11T09:43:19.736Z,28.90
2022-10-11T09:45:49.480Z,28.85
2022-10-11T09:48:20.513Z,31.48
2022-10-11T09:50:48.681Z,27.25
2022-10-11T09:53:16.740Z,27.50
2022-10-11T09:55:49.930Z,33.20
2022-10-11T09:58:28.480Z,28.50
2022-10-11T10:01:06.604Z,26.17
2022-10-11T10:06:08.696Z,22.65
2022-10-11T10:08:37.532Z,30.35
2022-10-11T10:11:06.127Z,33.90
2022-10-11T10:13:44.872Z,31.27
2022-10-11T10:16:23.923Z,33.45
2022-10-11T10:18:53.490Z,29.55
2022-10-11T10:21:27.332Z,34.42
2022-10-11T10:23:56.458Z,27.40
2022-10-11T10:26:25.287Z,28.27
2022-10-11T10:29:14.283Z,30.17
2022-10-11T10:34:45.610Z,29.00
2022-10-11T10:37:22.895Z,35.40
2022-10-11T10:39:55.846Z,31.30
2022-10-11T10:42:22.544Z,32.45
2022-10-11T10:44:53.665Z,32.40
2022-10-11T10:47:38.167Z,35.63
2022-10-11T10:50:08.763Z,29.50
2022-10-11T10:52:47.704Z,43.53
2022-10-11T10:55:23.295Z,34.65
2022-10-11T10:58:04.100Z,30.45
2022-10-11T11:00:38.790Z,30.13
2022-10-11T11:03:11.085Z,40.28
2022-10-11T11:05:45.663Z,34.17
2022-10-11T11:08:16.425Z,28.48
2022-10-11T11:10:53.338Z,31.98
2022-10-11T11:13:28.835Z,38.78
2022-10-11T11:16:06.866Z,35.97
2022-10-11T11:18:40.954Z,32.72
2022-10-11T11:21:27.036Z,31.50
2022-10-11T11:24:02.942Z,32.42
2022-10-11T11:26:39.724Z,41.67
2022-10-11T11:29:19.600Z,43.63
2022-10-11T11:32:05.149Z,34.53
2022-10-11T11:34:37.024Z,35.88
2022-10-11T11:37:06.421Z,37.28
2022-10-11T11:42:12.125Z,33.80
2022-10-11T11:44:43.407Z,35.40
2022-10-11T11:47:14.501Z,40.13
2022-10-11T11:49:45.480Z,36.72
2022-10-11T11:52:20.242Z,34.00
2022-10-11T11:54:56.572Z,41.60
2022-10-11T11:57:39.654Z,38.70
2022-10-11T12:00:13.411Z,35.83
2022-10-11T12:02:50.759Z,49.10
2022-10-11T12:05:22.399Z,42.75
2022-10-11T12:07:54.288Z,37.28
2022-10-11T12:10:36.106Z,30.48
2022-10-11T12:13:32.412Z,46.55
2022-10-11T12:16:08.081Z,33.53
2022-10-11T12:18:47.102Z,30.30
2022-10-11T12:21:22.212Z,27.98
2022-10-11T12:23:50.578Z,20.75
2022-10-11T12:26:42.480Z,33.50
2022-10-11T12:29:44.156Z,27.80
2022-10-11T12:32:49.278Z,36.38
2022-10-11T12:36:05.542Z,39.28
2022-10-11T12:41:38.659Z,42.17
2022-10-11T12:44:20.484Z,42.58
2022-10-11T12:47:26.438Z,41.42
2022-10-11T12:50:07.209Z,39.63
2022-10-11T12:52:48.785Z,36.25
2022-10-11T12:55:33.290Z,32.33
2022-10-11T12:58:17.613Z,38.58
2022-10-11T13:01:09.441Z,30.85
2022-10-11T13:03:43.787Z,40.03
2022-10-11T13:06:15.988Z,28.50
2022-10-11T13:08:48.002Z,37.97
2022-10-11T13:11:21.522Z,34.97
2022-10-11T13:13:53.533Z,31.77
2022-10-11T13:16:23.600Z,43.55
2022-10-11T13:18:56.198Z,37.78
2022-10-11T13:21:31.425Z,33.45
2022-10-11T13:24:10.039Z,32.92
2022-10-11T13:26:40.029Z,35.25
2022-10-11T13:29:16.479Z,31.77
2022-10-11T13:31:46.995Z,27.60
2022-10-11T13:34:19.732Z,31.38
2022-10-11T13:36:56.514Z,34.83
2022-10-11T13:39:31.084Z,27.40
2022-10-11T13:42:01.546Z,18.77
2022-10-11T13:44:32.778Z,34.92
2022-10-11T13:47:04.678Z,21.88
2022-10-11T13:49:33.996Z,30.80
2022-10-11T13:54:57.390Z,28.40
2022-10-11T13:57:34.481Z,26.38
2022-10-11T14:00:02.778Z,25.33
2022-10-11T14:02:33.171Z,37.33
2022-10-11T14:05:00.484Z,28.15
2022-10-11T14:07:39.048Z,29.95
2022-10-11T14:10:21.020Z,29.67
2022-10-11T14:13:02.951Z,25.50
2022-10-11T14:15:35.189Z,34.00
2022-10-11T14:18:26.515Z,24.20
2022-10-11T14:21:17.265Z,36.50
2022-10-11T14:23:45.504Z,28.13
2022-10-11T14:26:18.487Z,27.05
2022-10-11T14:29:02.690Z,26.33
2022-10-11T14:31:30.316Z,32.50
2022-10-11T14:33:59.365Z,29.95
2022-10-11T14:36:27.475Z,35.40
2022-10-11T14:38:58.150Z,26.55
2022-10-11T14:41:28.781Z,26.17
2022-10-11T14:43:58.006Z,24.50
2022-10-11T14:48:56.338Z,29.77
2022-10-11T14:51:30.181Z,23.88
2022-10-11T14:54:04.132Z,22.45
2022-10-11T14:56:39.143Z,14.73
2022-10-11T14:59:14.554Z,15.63
2022-10-11T15:02:04.320Z,20.63
2022-10-11T15:04:33.012Z,17.98
2022-10-11T15:07:00.837Z,23.95
2022-10-11T15:09:34.590Z,20.17
2022-10-11T15:12:08.155Z,19.38
2022-10-11T15:14:40.569Z,18.77
2022-10-11T15:17:12.269Z,18.77
2022-10-11T15:19:44.206Z,14.95
2022-10-11T15:22:12.038Z,22.23
2022-10-11T15:24:47.053Z,16.30
2022-10-11T15:27:17.983Z,12.20
2022-10-11T15:29:47.557Z,23.10
2022-10-11T15:32:15.335Z,13.55
2022-10-11T15:34:42.048Z,18.60
2022-10-11T15:37:08.644Z,13.10
2022-10-11T15:39:35.241Z,21.38
2022-10-11T15:42:02.122Z,13.95
2022-10-11T15:44:28.861Z,13.20
2022-10-11T15:46:56.977Z,19.13
2022-10-11T15:49:24.443Z,19.33
2022-10-11T15:51:51.220Z,19.08
2022-10-11T15:54:18.100Z,14.25
2022-10-11T15:56:44.916Z,21.98
2022-10-11T15:59:11.770Z,11.90
2022-10-11T16:01:38.580Z,18.83
2022-10-11T16:04:06.677Z,15.82
2022-10-11T16:06:33.374Z,18.65
2022-10-11T16:09:00.030Z,20.88
2022-10-11T16:11:26.583Z,11.75
2022-10-11T16:13:53.217Z,18.02
2022-10-11T16:16:19.876Z,24.40
2022-10-11T16:18:49.828Z,22.92
2022-10-11T16:21:21.110Z,22.45
2022-10-11T16:23:49.566Z,15.52
2022-10-11T16:26:16.578Z,16.80
2022-10-11T16:28:46.731Z,19.30
2022-10-11T16:31:15.343Z,13.60
2022-10-11T16:33:42.420Z,28.00
2022-10-11T16:36:10.280Z,24.25
2022-10-11T16:38:38.348Z,23.52
2022-10-11T16:41:06.123Z,17.92
2022-10-11T16:43:36.202Z,20.15
2022-10-11T16:46:03.248Z,20.20
2022-10-11T16:48:30.285Z,22.60
2022-10-11T16:51:05.254Z,17.45
2022-10-11T16:53:33.461Z,27.20
2022-10-11T16:56:05.319Z,25.77
2022-10-11T16:58:32.349Z,23.80
2022-10-11T17:00:59.294Z,16.00
2022-10-11T17:03:26.096Z,26.45
2022-10-11T17:05:52.840Z,29.33
2022-10-11T17:08:19.636Z,20.08
2022-10-11T17:10:52.131Z,14.13
2022-10-11T17:13:20.298Z,14.82
2022-10-11T17:15:47.628Z,19.58
2022-10-11T17:18:14.446Z,21.00
2022-10-11T17:20:41.100Z,19.20
2022-10-11T17:23:07.745Z,17.73
2022-10-11T17:25:41.515Z,16.98
2022-10-11T17:28:08.252Z,21.27
2022-10-11T17:30:36.638Z,19.13
2022-10-11T17:33:03.798Z,18.00
2022-10-11T17:35:31.846Z,25.83
2022-10-11T17:38:02.308Z,18.58
2022-10-11T17:40:31.902Z,24.33
2022-10-11T17:42:58.571Z,26.33
2022-10-11T17:45:25.249Z,31.80
2022-10-11T17:47:53.303Z,23.30
2022-10-11T17:50:19.991Z,32.53
2022-10-11T17:52:46.634Z,26.58
2022-10-11T17:55:13.274Z,21.90
2022-10-11T17:57:39.845Z,21.42
2022-10-11T18:00:07.778Z,34.22
2022-10-11T18:02:37.610Z,23.77
2022-10-11T18:05:07.262Z,23.13
2022-10-11T18:07:34.721Z,40.03
2022-10-11T18:10:01.454Z,30.60
2022-10-11T18:12:28.159Z,25.27
2022-10-11T18:14:55.193Z,35.00
2022-10-11T18:17:21.852Z,32.35
2022-10-11T18:19:48.443Z,24.20
2022-10-11T18:22:16.696Z,39.63
2022-10-11T18:24:43.798Z,21.98
2022-10-11T18:27:10.395Z,24.90
2022-10-11T18:29:37.072Z,35.67
2022-10-11T18:32:03.765Z,49.35
2022-10-11T18:34:30.428Z,27.48
2022-10-11T18:36:57.054Z,28.70
2022-10-11T18:39:25.086Z,31.45
2022-10-11T18:41:51.667Z,29.90
2022-10-11T18:44:18.242Z,29.38
2022-10-11T18:46:45.043Z,42.30
2022-10-11T18:49:12.484Z,38.88
2022-10-11T18:51:41.013Z,49.55
2022-10-11T18:54:10.279Z,44.63
2022-10-11T18:56:38.352Z,44.08
2022-10-11T18:59:05.629Z,35.80
2022-10-11T19:01:34.078Z,31.92
2022-10-11T19:04:01.764Z,29.97
2022-10-11T19:06:30.433Z,38.60
2022-10-11T19:09:00.673Z,36.90
2022-10-11T19:11:27.795Z,38.85
2022-10-11T19:13:57.332Z,32.72
2022-10-11T19:16:24.966Z,42.90
2022-10-11T19:18:52.260Z,39.53
2022-10-11T19:21:19.270Z,39.63
2022-10-11T19:23:47.397Z,40.42
2022-10-11T19:26:16.366Z,26.75
2022-10-11T19:28:43.671Z,26.08
2022-10-11T19:31:14.524Z,31.30
2022-10-11T19:33:41.087Z,43.40
2022-10-11T19:36:08.274Z,57.38
2022-10-11T19:38:35.816Z,44.15
2022-10-11T19:41:03.681Z,59.10
2022-10-11T19:43:30.377Z,44.13
2022-10-11T19:45:59.952Z,44.50
2022-10-11T19:48:28.051Z,51.15
2022-10-11T19:51:01.679Z,48.63
2022-10-11T19:53:28.230Z,46.15
2022-10-11T19:55:54.774Z,49.75
2022-10-11T19:58:21.373Z,53.00
2022-10-11T20:00:47.953Z,64.32
2022-10-11T20:03:14.544Z,61.58
2022-10-11T20:05:42.469Z,61.50
2022-10-11T20:08:09.011Z,69.25
2022-10-11T20:10:35.572Z,61.30
2022-10-11T20:13:02.157Z,57.70
2022-10-11T20:15:28.694Z,59.58
2022-10-11T20:17:55.246Z,60.45
2022-10-11T20:20:21.814Z,61.40
2022-10-11T20:22:49.788Z,58.80
2022-10-11T20:25:16.535Z,49.85
2022-10-11T20:27:43.110Z,65.20
2022-10-11T20:30:11.403Z,43.92
2022-10-11T20:32:37.994Z,46.03
2022-10-11T20:35:05.389Z,41.17
2022-10-11T20:37:34.811Z,34.33
2022-10-11T20:40:02.941Z,34.17
2022-10-11T20:42:29.997Z,37.97
2022-10-11T20:44:56.704Z,43.08
2022-10-11T20:47:23.300Z,43.13
2022-10-11T20:49:49.979Z,34.42
2022-10-11T20:52:16.610Z,35.08
2022-10-11T20:54:43.170Z,30.25
2022-10-11T20:57:11.261Z,36.53
2022-10-11T20:59:37.890Z,37.70
2022-10-11T21:02:04.511Z,34.13
2022-10-11T21:04:31.187Z,30.70
2022-10-11T21:06:57.812Z,31.33
2022-10-11T21:09:24.440Z,32.90
2022-10-11T21:11:51.028Z,37.92
2022-10-11T21:14:19.009Z,34.60
2022-10-11T21:16:45.601Z,34.70
2022-10-11T21:19:14.114Z,33.10
2022-10-11T21:21:40.767Z,27.05
2022-10-11T21:24:07.414Z,40.25
2022-10-11T21:26:34.132Z,26.15
2022-10-11T21:29:01.916Z,27.35
2022-10-11T21:31:34.092Z,32.28
2022-10-11T21:34:01.767Z,41.63
2022-10-11T21:36:28.385Z,29.35
2022-10-11T21:38:55.138Z,29.67
2022-10-11T21:41:23.520Z,27.80
2022-10-11T21:43:50.080Z,40.38
2022-10-11T21:46:18.575Z,33.85
2022-10-11T21:48:47.182Z,31.58
2022-10-11T21:51:15.708Z,30.77
2022-10-11T21:53:42.568Z,24.40
2022-10-11T21:56:09.213Z,38.85
2022-10-11T21:58:35.826Z,36.42
2022-10-11T22:01:02.505Z,29.33
2022-10-11T22:03:29.193Z,36.65
2022-10-11T22:05:57.194Z,32.38
2022-10-11T22:08:23.857Z,26.85
2022-10-11T22:10:53.719Z,30.30
2022-10-11T22:13:20.380Z,37.53
2022-10-11T22:15:47.041Z,33.00
2022-10-11T22:18:13.622Z,29.55
2022-10-11T22:20:40.370Z,33.78
2022-10-11T22:23:08.306Z,37.83
2022-10-11T22:25:35.315Z,35.33
2022-10-11T22:28:01.884Z,30.35
2022-10-11T22:30:28.591Z,35.03
2022-10-11T22:32:55.194Z,26.95
2022-10-11T22:35:21.815Z,32.13
2022-10-11T22:37:48.354Z,31.75
2022-10-11T22:40:17.056Z,36.28
2022-10-11T22:42:43.840Z,28.48
2022-10-11T22:45:11.028Z,31.60
2022-10-11T22:47:38.116Z,26.88
2022-10-11T22:50:05.622Z,27.60
2022-10-11T22:52:32.182Z,25.20
2022-10-11T22:54:58.782Z,37.25
2022-10-11T22:57:26.687Z,25.75
2022-10-11T22:59:53.256Z,27.88
2022-10-11T23:02:19.820Z,30.92
2022-10-11T23:04:46.374Z,33.35
2022-10-11T23:07:12.933Z,28.80
2022-10-11T23:09:39.509Z,22.33
2022-10-11T23:12:06.756Z,28.02
2022-10-11T23:14:34.719Z,28.13
2022-10-11T23:17:01.301Z,24.40
2022-10-11T23:19:27.870Z,25.10
2022-10-11T23:21:54.484Z,22.30
2022-10-11T23:24:21.115Z,25.63
2022-10-11T23:26:47.664Z,23.75
2022-10-11T23:29:14.240Z,27.42
2022-10-11T23:31:42.168Z,23.48
2022-10-11T23:34:08.756Z,19.42
2022-10-11T23:36:35.297Z,20.38
2022-10-11T23:39:01.872Z,29.15
2022-10-11T23:41:29.538Z,26.30
2022-10-11T23:43:57.012Z,28.95
2022-10-11T23:46:24.128Z,18.85
2022-10-11T23:48:52.039Z,17.63
2022-10-11T23:51:18.652Z,23.20
2022-10-11T23:53:45.284Z,22.20
2022-10-11T23:56:12.224Z,19.90
2022-10-11T23:58:38.809Z,19.75
